Time;durP1;ratioP1;P1;durP2;ratioP2;P2;SDS_P1;SDS_P2;PMS_P1;PMS_P2;Temp;Humidity;BMP_temperature;BMP_pressure;BME280_temperature;BME280_humidity;BME280_pressure;Samples;Min_cycle;Max_cycle;Signal;HPM_P1;HPM_P2
2024/02/12 00:00:28;;;;;;;4.28;1.75;;;19.60;77.60;;;;;;5050751;28;20021;-67
2024/02/12 00:02:54;;;;;;;7.35;1.90;;;19.60;77.60;;;;;;5045541;28;20392;-68
2024/02/12 00:05:21;;;;;;;6.78;2.15;;;19.60;77.80;;;;;;5046480;28;20370;-68
2024/02/12 00:07:47;;;;;;;11.32;2.17;;;19.50;77.70;;;;;;5044130;28;20104;-67
2024/02/12 00:10:13;;;;;;;3.58;1.92;;;19.60;77.90;;;;;;5050887;28;20433;-67
2024/02/12 00:12:42;;;;;;;8.07;1.67;;;19.60;78.00;;;;;;5049121;28;20150;-68
2024/02/12 00:15:11;;;;;;;5.10;1.55;;;19.50;78.00;;;;;;5049135;28;20017;-67
2024/02/12 00:17:38;;;;;;;4.57;1.60;;;19.50;78.10;;;;;;5035480;28;20507;-68
2024/02/12 00:20:10;;;;;;;9.38;1.85;;;19.50;78.10;;;;;;5045855;28;20029;-67
2024/02/12 00:22:40;;;;;;;4.15;1.77;;;19.50;78.10;;;;;;5045356;28;20111;-68
2024/02/12 00:25:07;;;;;;;4.07;1.70;;;19.50;78.20;;;;;;5028639;28;20069;-67
2024/02/12 00:27:34;;;;;;;4.78;1.45;;;19.50;78.30;;;;;;5046539;28;20028;-68
2024/02/12 00:30:00;;;;;;;3.55;2.03;;;19.50;78.30;;;;;;5050581;28;20027;-67
2024/02/12 00:32:29;;;;;;;6.40;1.80;;;19.50;78.20;;;;;;5044851;28;20507;-68
2024/02/12 00:34:57;;;;;;;8.10;2.10;;;19.50;78.30;;;;;;5048663;28;20040;-67
2024/02/12 00:37:25;;;;;;;2.78;1.27;;;19.50;78.60;;;;;;5050699;28;20041;-67
2024/02/12 00:39:53;;;;;;;5.43;1.90;;;19.50;78.60;;;;;;5050358;28;20029;-67
2024/02/12 00:42:19;;;;;;;4.15;1.40;;;19.50;78.40;;;;;;5049153;28;20064;-67
2024/02/12 00:44:45;;;;;;;4.28;1.40;;;19.50;78.40;;;;;;5054518;28;20441;-67
2024/02/12 00:47:11;;;;;;;4.22;1.65;;;19.50;78.20;;;;;;5054969;28;20029;-66
2024/02/12 00:49:40;;;;;;;7.13;1.70;;;19.50;78.20;;;;;;5057690;28;20422;-66
2024/02/12 00:52:07;;;;;;;2.17;1.20;;;19.50;78.20;;;;;;5053077;28;20040;-67
2024/02/12 00:54:35;;;;;;;8.70;1.63;;;19.50;78.10;;;;;;5054582;28;20025;-67
2024/02/12 00:57:01;;;;;;;3.92;1.45;;;19.50;78.10;;;;;;5053194;28;20021;-66
2024/02/12 00:59:26;;;;;;;3.10;1.63;;;19.50;78.10;;;;;;5048624;28;20036;-66
2024/02/12 01:01:53;;;;;;;5.13;1.10;;;19.50;78.00;;;;;;5054267;28;20473;-67
2024/02/12 01:04:19;;;;;;;5.10;1.55;;;19.50;78.00;;;;;;5054356;28;20056;-66
2024/02/12 01:06:44;;;;;;;2.92;1.70;;;19.50;77.90;;;;;;5049405;28;20063;-69
2024/02/12 01:09:12;;;;;;;2.60;1.35;;;19.50;77.90;;;;;;5054166;28;20013;-68
2024/02/12 01:11:38;;;;;;;3.58;1.67;;;19.50;78.20;;;;;;5054103;28;20104;-69
2024/02/12 01:14:04;;;;;;;2.63;1.67;;;19.50;78.10;;;;;;5053957;28;20017;-68
2024/02/12 01:16:32;;;;;;;4.75;1.60;;;19.50;78.00;;;;;;5054128;28;20021;-68
2024/02/12 01:18:58;;;;;;;3.38;1.58;;;19.50;78.00;;;;;;5036079;28;20096;-68
2024/02/12 01:21:25;;;;;;;5.60;1.50;;;19.50;78.00;;;;;;5053863;28;20489;-70
2024/02/12 01:23:51;;;;;;;4.97;1.42;;;19.50;77.90;;;;;;5053923;28;20061;-70
2024/02/12 01:26:16;;;;;;;5.55;1.88;;;19.50;77.90;;;;;;5051898;28;20095;-67
2024/02/12 01:28:42;;;;;;;8.85;1.55;;;19.50;77.90;;;;;;5053214;28;20090;-70
2024/02/12 01:31:18;;;;;;;3.58;1.42;;;19.50;77.90;;;;;;5044437;28;20028;-70
2024/02/12 01:33:44;;;;;;;1.95;1.20;;;19.50;78.00;;;;;;5050452;28;20021;-69
2024/02/12 01:36:11;;;;;;;3.25;1.20;;;19.50;78.10;;;;;;5053704;28;20028;-69
2024/02/12 01:38:38;;;;;;;3.13;1.70;;;19.50;78.10;;;;;;5053018;28;20021;-69
2024/02/12 01:41:04;;;;;;;4.00;1.17;;;19.50;78.20;;;;;;5053354;28;20021;-69
2024/02/12 01:43:34;;;;;;;3.08;1.05;;;19.50;78.30;;;;;;5053560;28;20041;-69
2024/02/12 01:46:01;;;;;;;5.85;1.85;;;19.50;78.40;;;;;;5035663;28;20025;-68
2024/02/12 01:48:29;;;;;;;9.07;1.42;;;19.50;78.60;;;;;;5053413;28;20029;-67
2024/02/12 01:50:57;;;;;;;6.65;1.45;;;19.50;78.40;;;;;;5052023;28;20036;-67
2024/02/12 01:53:23;;;;;;;6.13;1.55;;;19.50;78.50;;;;;;5053235;28;20104;-67
2024/02/12 01:55:50;;;;;;;2.80;1.50;;;19.50;78.60;;;;;;5053432;28;20104;-67
2024/02/12 01:58:16;;;;;;;3.33;2.00;;;19.50;78.60;;;;;;5053221;28;20043;-67
2024/02/12 02:00:45;;;;;;;7.20;1.35;;;19.50;78.70;;;;;;5053182;28;20101;-67
2024/02/12 02:03:11;;;;;;;4.15;1.42;;;19.50;78.80;;;;;;5045323;28;20079;-67
2024/02/12 02:05:37;;;;;;;3.10;1.48;;;19.50;78.90;;;;;;5048863;28;20064;-66
2024/02/12 02:08:03;;;;;;;5.47;1.55;;;19.50;78.70;;;;;;5052515;28;20052;-67
2024/02/12 02:10:29;;;;;;;3.05;1.25;;;19.50;78.90;;;;;;5052640;28;20021;-66
2024/02/12 02:12:59;;;;;;;3.75;1.30;;;19.50;78.80;;;;;;5057711;28;20526;-65
2024/02/12 02:15:25;;;;;;;4.00;1.30;;;19.50;78.90;;;;;;5053302;28;20108;-67
2024/02/12 02:17:51;;;;;;;5.82;1.38;;;19.50;78.90;;;;;;5052986;28;20484;-66
2024/02/12 02:20:20;;;;;;;2.75;1.20;;;19.50;78.90;;;;;;5052947;28;20127;-66
2024/02/12 02:22:46;;;;;;;4.15;1.50;;;19.50;79.10;;;;;;5052754;28;20029;-68
2024/02/12 02:25:12;;;;;;;3.40;1.42;;;19.50;79.10;;;;;;5052794;28;20070;-67
2024/02/12 02:27:38;;;;;;;3.42;1.23;;;19.50;79.30;;;;;;5052510;28;20116;-67
2024/02/12 02:30:07;;;;;;;3.05;1.60;;;19.50;79.20;;;;;;5052662;28;20024;-67
2024/02/12 02:32:35;;;;;;;4.45;1.60;;;19.50;79.40;;;;;;5052528;28;20044;-67
2024/02/12 02:35:01;;;;;;;1.33;0.98;;;19.50;79.30;;;;;;5052613;28;20013;-66
2024/02/12 02:37:27;;;;;;;3.38;1.42;;;19.50;79.40;;;;;;5052617;28;20074;-67
2024/02/12 02:39:52;;;;;;;2.50;1.27;;;19.50;79.50;;;;;;5052402;28;20180;-67
2024/02/12 02:42:18;;;;;;;2.05;1.70;;;19.50;79.50;;;;;;5052148;28;20459;-67
2024/02/12 02:44:44;;;;;;;5.03;1.70;;;19.50;79.60;;;;;;5052341;28;20059;-67
2024/02/12 02:47:10;;;;;;;3.30;1.20;;;19.50;79.50;;;;;;5052597;28;20078;-67
2024/02/12 02:49:36;;;;;;;3.42;1.48;;;19.50;79.80;;;;;;5052358;28;20028;-67
2024/02/12 02:52:02;;;;;;;1.77;1.25;;;19.50;80.00;;;;;;5052153;28;20108;-67
2024/02/12 02:54:28;;;;;;;4.38;1.17;;;19.50;80.00;;;;;;5052153;28;20086;-67
2024/02/12 02:56:54;;;;;;;3.08;1.30;;;19.50;80.00;;;;;;5052131;28;20032;-65
2024/02/12 02:59:20;;;;;;;2.95;1.25;;;19.50;79.90;;;;;;5052156;28;20062;-67
2024/02/12 03:01:46;;;;;;;3.20;1.25;;;19.50;79.90;;;;;;5051996;28;20021;-67
2024/02/12 03:04:14;;;;;;;3.88;1.20;;;19.50;79.90;;;;;;5052048;28;20436;-68
2024/02/12 03:06:40;;;;;;;3.30;1.42;;;19.50;79.90;;;;;;5047488;28;20024;-67
2024/02/12 03:09:07;;;;;;;2.22;1.17;;;19.50;79.90;;;;;;5051793;28;20013;-66
2024/02/12 03:11:33;;;;;;;7.22;1.65;;;19.50;79.90;;;;;;5051756;28;20074;-67
2024/02/12 03:13:58;;;;;;;3.15;1.83;;;19.60;79.90;;;;;;5051896;28;20092;-67
2024/02/12 03:16:25;;;;;;;4.82;1.75;;;19.50;79.90;;;;;;5051786;28;20033;-67
2024/02/12 03:18:52;;;;;;;2.40;1.17;;;19.50;79.80;;;;;;5051678;28;20025;-66
2024/02/12 03:21:21;;;;;;;1.92;1.27;;;19.50;79.90;;;;;;5051495;28;20045;-67
2024/02/12 03:23:48;;;;;;;2.95;1.17;;;19.50;79.90;;;;;;5051841;28;20122;-68
2024/02/12 03:26:15;;;;;;;3.45;1.23;;;19.50;80.00;;;;;;5033634;28;20021;-67
2024/02/12 03:28:41;;;;;;;2.22;1.08;;;19.50;80.00;;;;;;5051415;28;20035;-67
2024/02/12 03:31:07;;;;;;;3.95;1.80;;;19.50;79.90;;;;;;5050339;28;20425;-67
2024/02/12 03:33:33;;;;;;;5.97;1.40;;;19.60;80.00;;;;;;5046895;28;20064;-67
2024/02/12 03:36:00;;;;;;;3.58;1.15;;;19.50;80.00;;;;;;5051353;28;20053;-68
2024/02/12 03:38:26;;;;;;;2.25;1.10;;;19.60;79.90;;;;;;5051234;28;20020;-67
2024/02/12 03:40:53;;;;;;;5.25;1.00;;;19.50;79.90;;;;;;5051158;28;20036;-67
2024/02/12 03:43:23;;;;;;;2.80;1.52;;;19.50;79.80;;;;;;5051361;28;20420;-66
2024/02/12 03:45:49;;;;;;;1.67;1.17;;;19.50;80.00;;;;;;5051209;28;20033;-66
2024/02/12 04:01:56;;;;;;;2.67;1.08;;;19.60;79.70;;;;;;5051018;28;20044;-68
2024/02/12 04:04:22;;;;;;;2.25;1.15;;;19.60;79.70;;;;;;5051092;28;20025;-66
2024/02/12 04:06:47;;;;;;;1.83;1.40;;;19.60;79.80;;;;;;5047115;28;20032;-67
2024/02/12 04:09:13;;;;;;;1.55;1.00;;;19.60;79.70;;;;;;5051007;28;20092;-67
2024/02/12 04:11:42;;;;;;;4.10;1.38;;;19.60;79.70;;;;;;5049749;28;20100;-68
2024/02/12 04:14:11;;;;;;;2.58;0.90;;;19.60;79.80;;;;;;5050827;28;20032;-66
2024/02/12 04:16:37;;;;;;;5.60;1.30;;;19.60;79.70;;;;;;5050873;28;20147;-67
2024/02/12 04:19:03;;;;;;;2.65;1.27;;;19.60;79.80;;;;;;5050699;28;20033;-67
2024/02/12 04:21:32;;;;;;;2.33;1.17;;;19.60;79.80;;;;;;5050638;28;20025;-66
2024/02/12 04:24:03;;;;;;;2.80;1.17;;;19.60;79.90;;;;;;5050355;28;20036;-66
2024/02/12 04:26:30;;;;;;;1.77;0.93;;;19.60;79.90;;;;;;5048502;28;20472;-68
2024/02/12 04:28:58;;;;;;;2.15;1.20;;;19.60;79.80;;;;;;5048771;28;20888;-66
2024/02/12 04:31:26;;;;;;;2.75;1.50;;;19.70;79.90;;;;;;5048799;28;20017;-67
2024/02/12 04:33:53;;;;;;;3.78;1.00;;;19.60;79.80;;;;;;5049575;28;20025;-66
2024/02/12 04:36:19;;;;;;;4.25;0.95;;;19.60;79.70;;;;;;5049071;28;20099;-66
2024/02/12 04:38:44;;;;;;;2.17;1.33;;;19.60;79.70;;;;;;5048711;28;20029;-66
2024/02/12 04:41:12;;;;;;;3.22;1.05;;;19.70;79.80;;;;;;5048720;28;20469;-67
2024/02/12 04:43:37;;;;;;;6.25;1.25;;;19.60;79.80;;;;;;5048780;28;20033;-66
2024/02/12 04:46:03;;;;;;;0.82;0.75;;;19.60;79.80;;;;;;5048686;28;20108;-67
2024/02/12 04:48:31;;;;;;;3.80;1.10;;;19.60;79.80;;;;;;5048919;28;20017;-67
2024/02/12 04:50:56;;;;;;;3.40;1.10;;;19.70;80.00;;;;;;5048433;28;20013;-67
2024/02/12 04:53:22;;;;;;;1.58;1.13;;;19.70;79.80;;;;;;5048861;28;20078;-68
2024/02/12 04:55:48;;;;;;;2.80;1.00;;;19.70;79.90;;;;;;5048582;28;20029;-67
2024/02/12 04:58:13;;;;;;;2.90;1.15;;;19.70;79.70;;;;;;5048439;28;20477;-67
2024/02/12 05:00:39;;;;;;;2.00;0.80;;;19.70;79.70;;;;;;5048638;28;20536;-67
2024/02/12 05:03:07;;;;;;;2.80;1.30;;;19.70;79.80;;;;;;5048553;28;20029;-66
2024/02/12 05:05:33;;;;;;;2.47;1.20;;;19.70;79.80;;;;;;5046260;28;20036;-67
2024/02/12 05:08:03;;;;;;;1.98;1.13;;;19.70;79.80;;;;;;5047169;28;20021;-66
2024/02/12 05:10:29;;;;;;;3.83;1.30;;;19.70;79.80;;;;;;5048358;28;20456;-68
2024/02/12 05:12:55;;;;;;;6.20;1.10;;;19.70;79.80;;;;;;5048270;28;20384;-68
2024/02/12 05:15:20;;;;;;;14.38;1.92;;;19.70;79.90;;;;;;5048883;28;20020;-67
2024/02/12 05:17:54;;;;;;;12.88;1.98;;;19.70;80.00;;;;;;5048782;28;20021;-67
2024/02/12 05:23:09;;;;;;;8.20;1.83;;;19.70;79.80;;;;;;5049015;28;20408;-67
2024/02/12 05:25:35;;;;;;;3.08;1.05;;;19.70;80.10;;;;;;5048689;28;20488;-66
2024/02/12 05:28:01;;;;;;;3.78;1.00;;;19.70;80.30;;;;;;5048688;28;20032;-67
2024/02/12 05:30:26;;;;;;;4.25;1.30;;;19.70;80.10;;;;;;5051930;28;20542;-68
2024/02/12 05:32:52;;;;;;;4.97;1.42;;;19.70;80.20;;;;;;5045045;28;20090;-65
2024/02/12 05:35:18;;;;;;;3.20;1.38;;;19.70;80.10;;;;;;5048002;28;20022;-68
2024/02/12 05:37:44;;;;;;;10.68;1.48;;;19.70;80.10;;;;;;5032693;28;20559;-66
2024/02/12 05:40:10;;;;;;;10.27;1.25;;;19.70;80.20;;;;;;5051977;28;20158;-67
2024/02/12 05:42:36;;;;;;;6.78;1.90;;;19.70;80.00;;;;;;5052227;28;20021;-67
2024/02/12 05:45:02;;;;;;;3.53;1.13;;;19.70;80.10;;;;;;5045395;28;20021;-67
2024/02/12 05:47:28;;;;;;;12.15;1.83;;;19.70;80.00;;;;;;5051776;28;20496;-68
2024/02/12 05:49:54;;;;;;;4.78;1.42;;;19.70;79.70;;;;;;5050067;28;20060;-67
2024/02/12 05:52:20;;;;;;;6.55;1.73;;;19.80;79.70;;;;;;5040488;28;20036;-68
2024/02/12 05:54:46;;;;;;;14.23;1.33;;;19.80;79.70;;;;;;5050332;28;20445;-68
2024/02/12 05:57:12;;;;;;;4.97;1.27;;;19.70;79.60;;;;;;5051741;28;20100;-69
2024/02/12 05:59:38;;;;;;;7.38;1.67;;;19.70;79.50;;;;;;5052456;28;20089;-66
2024/02/12 06:02:04;;;;;;;6.55;1.85;;;19.80;79.60;;;;;;5052731;28;20037;-66
2024/02/12 06:04:31;;;;;;;8.38;1.25;;;19.70;79.40;;;;;;5052520;28;20029;-68
2024/02/12 06:06:58;;;;;;;3.75;1.58;;;19.70;79.30;;;;;;5046802;28;20048;-68
2024/02/12 06:09:25;;;;;;;15.10;1.70;;;19.40;75.50;;;;;;5046255;28;20043;-68
2024/02/12 06:11:50;;;;;;;7.70;1.63;;;19.10;72.40;;;;;;5052295;28;20085;-68
2024/02/12 06:14:16;;;;;;;10.93;2.08;;;19.20;79.30;;;;;;5052263;28;20096;-69
2024/02/12 06:16:42;;;;;;;48.67;3.10;;;19.20;78.80;;;;;;5052293;28;20074;-70
2024/02/12 06:19:08;;;;;;;22.67;2.88;;;19.30;78.50;;;;;;5051982;28;20029;-69
2024/02/12 06:21:35;;;;;;;14.63;2.40;;;19.40;78.70;;;;;;5051866;28;20057;-75
2024/02/12 06:24:02;;;;;;;21.10;3.20;;;19.40;78.30;;;;;;5055273;28;20048;-71
2024/02/12 06:26:28;;;;;;;18.73;3.33;;;19.50;78.30;;;;;;5050535;28;20489;-71
2024/02/12 06:28:53;;;;;;;15.80;2.67;;;19.50;78.10;;;;;;5050873;28;20071;-70
2024/02/12 06:31:19;;;;;;;18.70;2.28;;;19.50;78.00;;;;;;5051232;28;20040;-68
2024/02/12 06:33:44;;;;;;;20.90;2.45;;;19.50;78.00;;;;;;5051569;28;20029;-68
2024/02/12 06:36:10;;;;;;;16.67;3.08;;;19.40;78.20;;;;;;5051265;28;20024;-68
2024/02/12 06:38:37;;;;;;;14.52;2.92;;;19.30;78.40;;;;;;5051598;28;20469;-68
2024/02/12 06:41:02;;;;;;;15.25;2.63;;;19.20;78.60;;;;;;5049815;28;20146;-69
2024/02/12 06:43:28;;;;;;;13.98;2.30;;;19.20;78.80;;;;;;5051060;28;20132;-68
2024/02/12 06:45:53;;;;;;;17.50;2.40;;;19.10;78.80;;;;;;5051026;28;20020;-68
2024/02/12 06:48:19;;;;;;;16.08;2.17;;;19.10;78.80;;;;;;5050932;28;20021;-67
2024/02/12 06:50:45;;;;;;;9.00;2.13;;;19.10;78.80;;;;;;5050156;28;20021;-67
2024/02/12 06:53:10;;;;;;;9.88;2.00;;;19.10;78.90;;;;;;5048800;28;20195;-68
2024/02/12 06:55:36;;;;;;;10.95;2.50;;;19.10;78.90;;;;;;5050710;28;20033;-68
2024/02/12 06:58:02;;;;;;;18.10;2.05;;;19.10;78.80;;;;;;5051378;28;20032;-68
2024/02/12 07:00:28;;;;;;;14.82;2.60;;;19.10;78.80;;;;;;5050356;28;20021;-67
2024/02/12 07:02:55;;;;;;;16.85;3.13;;;19.00;78.70;;;;;;5050685;28;20025;-67
2024/02/12 07:05:21;;;;;;;9.05;2.15;;;19.00;78.80;;;;;;5051007;28;20028;-68
2024/02/12 07:07:47;;;;;;;7.40;2.20;;;19.00;78.70;;;;;;5051380;28;20369;-68
2024/02/12 07:10:13;;;;;;;8.90;2.20;;;19.00;78.50;;;;;;5050901;28;20018;-67
2024/02/12 07:12:38;;;;;;;45.58;7.63;;;19.00;78.50;;;;;;5051099;28;20017;-67
2024/02/12 07:15:08;;;;;;;34.42;5.40;;;19.00;79.20;;;;;;5052564;28;20029;-66
2024/02/12 07:17:35;;;;;;;21.17;4.38;;;19.00;79.30;;;;;;5048398;28;20036;-67
2024/02/12 07:20:04;;;;;;;19.98;3.85;;;19.00;79.10;;;;;;5032138;28;20171;-68
2024/02/12 07:22:29;;;;;;;20.02;3.00;;;19.00;78.90;;;;;;5049509;28;20079;-68
2024/02/12 07:24:55;;;;;;;13.77;3.60;;;19.00;78.80;;;;;;5049894;28;20041;-68
2024/02/12 07:27:21;;;;;;;11.15;3.30;;;19.00;78.70;;;;;;5049822;28;20017;-68
2024/02/12 07:29:47;;;;;;;13.05;3.20;;;19.00;78.50;;;;;;5050051;28;20031;-68
2024/02/12 07:32:14;;;;;;;13.73;3.20;;;19.00;78.50;;;;;;5049648;28;20477;-68
2024/02/12 07:34:41;;;;;;;19.60;4.22;;;19.00;78.40;;;;;;5050022;28;20083;-67
2024/02/12 07:37:07;;;;;;;16.58;3.67;;;19.00;78.30;;;;;;5050611;28;20070;-66
2024/02/12 07:39:32;;;;;;;9.43;2.40;;;19.00;78.20;;;;;;5050596;28;20025;-67
2024/02/12 07:41:59;;;;;;;11.57;3.00;;;19.00;78.30;;;;;;5050427;28;20545;-68
2024/02/12 07:44:26;;;;;;;11.18;2.95;;;19.00;78.20;;;;;;5050646;28;20380;-68
2024/02/12 07:46:51;;;;;;;11.93;2.75;;;19.00;78.10;;;;;;5050491;28;20025;-68
2024/02/12 07:49:19;;;;;;;10.85;3.10;;;19.00;78.00;;;;;;5050439;28;20021;-68
2024/02/12 07:51:45;;;;;;;10.40;2.97;;;19.00;78.00;;;;;;5049917;28;20040;-68
2024/02/12 07:54:10;;;;;;;13.75;3.28;;;19.10;77.90;;;;;;5050384;28;20021;-67
2024/02/12 07:56:36;;;;;;;7.40;2.63;;;19.10;77.90;;;;;;5050470;28;20028;-68
2024/02/12 07:59:02;;;;;;;12.60;3.60;;;19.10;77.80;;;;;;5050267;28;20086;-68
2024/02/12 08:01:29;;;;;;;10.52;2.75;;;19.00;77.80;;;;;;5050190;28;20105;-68
2024/02/12 08:03:54;;;;;;;11.45;2.90;;;19.10;77.70;;;;;;5050472;28;20453;-68
2024/02/12 08:06:20;;;;;;;9.50;2.42;;;19.10;77.70;;;;;;5050306;28;20067;-68
2024/02/12 08:08:47;;;;;;;8.98;2.90;;;19.00;77.60;;;;;;5050494;28;20023;-68
2024/02/12 08:11:14;;;;;;;9.98;2.85;;;19.10;77.60;;;;;;5050237;28;20018;-68
2024/02/12 08:13:42;;;;;;;13.80;2.55;;;19.10;77.50;;;;;;5050614;28;20400;-68
2024/02/12 08:16:08;;;;;;;9.32;2.78;;;19.10;77.50;;;;;;5050285;28;20025;-67
2024/02/12 08:18:33;;;;;;;9.15;2.33;;;19.10;77.50;;;;;;5050226;28;20100;-67
2024/02/12 08:20:59;;;;;;;9.52;2.63;;;19.10;77.40;;;;;;5050225;28;20055;-68
2024/02/12 08:23:25;;;;;;;10.35;2.17;;;19.00;77.40;;;;;;5050207;28;20430;-68
2024/02/12 08:25:52;;;;;;;7.53;2.63;;;19.10;77.40;;;;;;5050454;28;20075;-67
2024/02/12 08:28:22;;;;;;;10.82;2.60;;;19.10;77.30;;;;;;5050102;28;20381;-68
2024/02/12 08:30:48;;;;;;;7.07;1.48;;;19.10;77.30;;;;;;5049655;28;20104;-67
2024/02/12 08:33:14;;;;;;;2.80;1.17;;;18.70;66.30;;;;;;5050354;28;20533;-67
2024/02/12 08:35:40;;;;;;;2.05;1.10;;;18.00;61.90;;;;;;5050196;28;20021;-66
2024/02/12 08:38:09;;;;;;;2.15;1.20;;;;;;;;;;5050191;28;20374;-68
2024/02/12 08:40:35;;;;;;;1.50;1.10;;;;;;;;;;5049747;28;20101;-68
2024/02/12 08:43:04;;;;;;;2.72;1.60;;;;;;;;;;5048804;28;20106;-68
2024/02/12 08:45:30;;;;;;;2.05;1.40;;;;;;;;;;5049647;28;20024;-69
2024/02/12 08:47:56;;;;;;;3.33;1.92;;;;;;;;;;5049657;28;20025;-68
2024/02/12 08:50:22;;;;;;;1.90;1.27;;;;;;;;;;5049889;28;20112;-69
2024/02/12 08:52:49;;;;;;;5.35;1.55;;;;;;;;;;5049884;28;20025;-68
2024/02/12 08:55:16;;;;;;;3.80;1.20;;;;;;;;;;5049818;28;20515;-68
2024/02/12 08:57:42;;;;;;;1.70;1.27;;;;;;;;;;5049731;28;20025;-68
2024/02/12 09:00:09;;;;;;;3.10;1.50;;;;;;;;;;5049700;28;20021;-69
2024/02/12 09:02:35;;;;;;;5.13;1.30;;;;;;;;;;5049553;28;20029;-68
2024/02/12 09:05:02;;;;;;;3.35;1.20;;;;;;;;;;5052891;28;20040;-68
2024/02/12 09:07:29;;;;;;;4.80;2.10;;;;;;;;;;5053404;28;20119;-68
2024/02/12 09:09:55;;;;;;;2.50;1.50;;;;;;;;;;5053328;28;20040;-69
2024/02/12 09:12:21;;;;;;;6.20;1.73;;;;;;;;;;5053359;28;20025;-69
2024/02/12 09:14:47;;;;;;;3.53;1.65;;;;;;;;;;5053609;28;20098;-69
2024/02/12 09:17:15;;;;;;;2.30;1.23;;;;;;;;;;5053385;28;20100;-68
2024/02/12 09:19:42;;;;;;;4.68;1.20;;;;;;;;;;5053394;28;20053;-69
2024/02/12 09:22:09;;;;;;;2.05;0.90;;;;;;;;;;5034932;28;20482;-68
2024/02/12 09:24:40;;;;;;;4.07;1.30;;;;;;;;;;5053169;28;20475;-68
2024/02/12 09:27:06;;;;;;;3.05;1.67;;;;;;;;;;5052951;28;20048;-70
2024/02/12 09:29:34;;;;;;;1.95;0.80;;;;;;;;;;5052767;28;20033;-69
2024/02/12 09:32:02;;;;;;;6.07;1.27;;;;;;;;;;5052750;28;20021;-67
2024/02/12 09:34:28;;;;;;;2.58;1.00;;;;;;;;;;5052928;28;20033;-68
2024/02/12 09:36:54;;;;;;;2.05;1.02;;;;;;;;;;5053035;28;20075;-68
2024/02/12 09:39:20;;;;;;;2.08;1.02;;;;;;;;;;5052937;28;20108;-69
2024/02/12 09:41:47;;;;;;;3.28;1.33;;;;;;;;;;5052596;28;20029;-68
2024/02/12 09:44:15;;;;;;;1.63;0.93;;;;;;;;;;5053000;28;20460;-68
2024/02/12 09:46:45;;;;;;;3.67;1.20;;;;;;;;;;5053016;28;20379;-69
2024/02/12 09:49:11;;;;;;;1.17;0.95;;;;;;;;;;5052609;28;20017;-68
2024/02/12 09:51:38;;;;;;;3.25;1.30;;;;;;;;;;5052604;28;20112;-69
2024/02/12 09:54:04;;;;;;;4.65;1.35;;;;;;;;;;5052703;28;20047;-68
2024/02/12 09:56:31;;;;;;;2.35;1.20;;;;;;;;;;5052705;28;20543;-68
2024/02/12 09:58:58;;;;;;;3.22;1.23;;;;;;;;;;5052682;28;20032;-69
2024/02/12 10:01:24;;;;;;;4.40;1.63;;;;;;;;;;5052492;28;20090;-68
2024/02/12 10:03:50;;;;;;;2.08;1.10;;;;;;;;;;5052439;28;20068;-68
2024/02/12 10:06:16;;;;;;;3.45;1.25;;;;;;;;;;5052639;28;20021;-68
2024/02/12 10:08:43;;;;;;;2.08;1.05;;;;;;;;;;5052356;28;20441;-68
2024/02/12 10:11:10;;;;;;;2.63;1.33;;;;;;;;;;5052607;28;20151;-67
2024/02/12 10:13:36;;;;;;;2.63;0.90;;;;;;;;;;5052518;28;20071;-68
2024/02/12 10:16:02;;;;;;;1.90;1.02;;;;;;;;;;5052204;28;20049;-68
2024/02/12 10:18:28;;;;;;;2.15;0.85;;;;;;;;;;5052308;28;20064;-69
2024/02/12 10:20:54;;;;;;;1.90;1.08;;;;;;;;;;5052195;28;20041;-68
2024/02/12 10:23:20;;;;;;;1.35;0.70;;;;;;;;;;5052379;28;20028;-68
2024/02/12 10:25:53;;;;;;;1.70;0.98;;;;;;;;;;5053562;28;20109;-68
2024/02/12 10:28:19;;;;;;;2.45;0.90;;;;;;;;;;5053060;28;20534;-68
2024/02/12 10:30:48;;;;;;;1.42;0.80;;;;;;;;;;5053048;28;20059;-68
2024/02/12 10:33:15;;;;;;;2.22;1.08;;;;;;;;;;5053248;28;20396;-69
2024/02/12 10:35:48;;;;;;;2.13;0.85;;;;;;;;;;5053694;28;20021;-68
2024/02/12 10:38:15;;;;;;;1.63;1.00;;;;;;;;;;5053056;28;20045;-69
2024/02/12 10:41:03;;;;;;;1.67;0.95;;;;;;;;;;5052805;28;20029;-68
2024/02/12 10:43:31;;;;;;;1.98;0.80;;;;;;;;;;5053009;28;20017;-69
2024/02/12 10:45:58;;;;;;;1.23;0.98;;;;;;;;;;5052891;28;20386;-69
2024/02/12 10:48:25;;;;;;;1.77;0.75;;;;;;;;;;5053031;28;20028;-69
2024/02/12 10:50:53;;;;;;;1.50;0.90;;;;;;;;;;5052572;28;20017;-68
2024/02/12 10:53:19;;;;;;;1.40;0.90;;;;;;;;;;5052955;28;20031;-68
2024/02/12 10:55:46;;;;;;;1.58;1.00;;;;;;;;;;5052768;28;20029;-66
2024/02/12 10:58:16;;;;;;;1.67;0.90;;;;;;;;;;5052513;28;20032;-68
2024/02/12 11:00:54;;;;;;;2.15;1.08;;;;;;;;;;5052407;28;20519;-69
2024/02/12 11:03:28;;;;;;;2.53;0.98;;;;;;;;;;5052693;28;20078;-68
2024/02/12 11:05:54;;;;;;;1.92;0.90;;;;;;;;;;5052542;28;20032;-68
2024/02/12 11:08:24;;;;;;;1.38;0.82;;;;;;;;;;5052435;28;20017;-68
2024/02/12 11:10:50;;;;;;;2.05;0.80;;;;;;;;;;5052201;28;20025;-68
2024/02/12 11:13:17;;;;;;;0.60;0.57;;;;;;;;;;5052383;28;20100;-68
2024/02/12 11:15:53;;;;;;;1.13;0.80;;;;;;;;;;5052598;28;20029;-69
2024/02/12 11:18:22;;;;;;;1.02;0.82;;;;;;;;;;5052231;28;20143;-68
2024/02/12 11:20:51;;;;;;;1.02;0.80;;;;;;;;;;5052082;28;20028;-68
2024/02/12 11:23:21;;;;;;;3.45;1.02;;;;;;;;;;5052250;28;20028;-68
2024/02/12 11:25:48;;;;;;;2.58;1.13;;;;;;;;;;5051636;28;20108;-68
2024/02/12 11:28:15;;;;;;;2.03;0.70;;;;;;;;;;5051680;28;20055;-68
2024/02/12 11:30:42;;;;;;;1.45;0.90;;;;;;;;;;5051826;28;20538;-68
2024/02/12 11:33:11;;;;;;;1.20;0.90;;;;;;;;;;5052186;28;20017;-68
2024/02/12 11:35:37;;;;;;;0.60;0.43;;;;;;;;;;5051886;28;20052;-68
2024/02/12 11:38:03;;;;;;;1.00;0.80;;;;;;;;;;5051843;28;20021;-67
2024/02/12 11:40:29;;;;;;;2.75;1.00;;;;;;;;;;5051585;28;20048;-68
2024/02/12 11:42:55;;;;;;;2.17;0.90;;;;;;;;;;5033984;28;20017;-68
2024/02/12 11:45:25;;;;;;;1.48;0.73;;;;;;;;;;5052137;28;20104;-68
2024/02/12 11:47:51;;;;;;;2.00;0.90;;;;;;;;;;5051808;28;20033;-68
2024/02/12 11:50:18;;;;;;;1.20;0.70;;;;;;;;;;5051665;28;20028;-69
2024/02/12 11:52:44;;;;;;;1.92;0.75;;;;;;;;;;5051808;28;20081;-69
2024/02/12 11:55:11;;;;;;;0.85;0.73;;;;;;;;;;5051723;28;20021;-68
2024/02/12 11:57:38;;;;;;;1.95;0.80;;;;;;;;;;5051572;28;20033;-68
2024/02/12 12:00:06;;;;;;;1.40;0.90;;;;;;;;;;5051511;28;20512;-69
2024/02/12 12:02:32;;;;;;;3.85;1.02;;;;;;;;;;5051466;28;20037;-68
2024/02/12 12:04:58;;;;;;;0.80;0.65;;;;;;;;;;5051573;28;20025;-68
2024/02/12 12:07:26;;;;;;;1.85;1.02;;;;;;;;;;5051170;28;20044;-68
2024/02/12 12:10:04;;;;;;;1.30;0.90;;;;;;;;;;5051276;28;20024;-69
2024/02/12 12:12:33;;;;;;;1.45;0.73;;;;;;;;;;5033384;28;20044;-68
2024/02/12 12:15:04;;;;;;;0.65;0.52;;;;;;;;;;5051389;28;20507;-68
2024/02/12 12:17:31;;;;;;;0.60;0.52;;;;;;;;;;5051427;28;20477;-69
2024/02/12 12:20:05;;;;;;;2.30;1.10;;;;;;;;;;5051322;28;20451;-69
2024/02/12 12:22:31;;;;;;;0.80;0.60;;;;;;;;;;5051302;28;20131;-69
2024/02/12 12:25:00;;;;;;;0.50;0.45;;;;;;;;;;5051287;28;20112;-69
2024/02/12 12:27:27;;;;;;;3.33;1.15;;;;;;;;;;5050837;28;20496;-68
2024/02/12 12:29:54;;;;;;;1.33;0.50;;;;;;;;;;5051074;28;20022;-68
2024/02/12 12:32:20;;;;;;;1.27;0.70;;;;;;;;;;5050975;28;20516;-69
2024/02/12 12:34:46;;;;;;;1.25;0.85;;;;;;;;;;5051173;28;20033;-69
2024/02/12 12:37:16;;;;;;;1.67;0.70;;;;;;;;;;5051508;28;20036;-68
2024/02/12 12:39:43;;;;;;;1.38;0.93;;;;;;;;;;5055114;28;20481;-68
2024/02/12 12:42:12;;;;;;;1.40;0.70;;;;;;;;;;5055039;28;20159;-68
2024/02/12 12:44:38;;;;;;;0.77;0.70;;;;;;;;;;5055140;28;20029;-68
2024/02/12 12:47:05;;;;;;;1.20;0.70;;;;;;;;;;5055018;28;20053;-68
2024/02/12 12:49:32;;;;;;;1.70;1.00;;;;;;;;;;5055208;28;20020;-69
2024/02/12 12:51:58;;;;;;;1.60;0.55;;;;;;;;;;5055126;28;20082;-68
2024/02/12 12:54:24;;;;;;;1.05;0.70;;;;;;;;;;5055009;28;20376;-68
2024/02/12 12:56:51;;;;;;;0.80;0.60;;;;;;;;;;5037071;28;20047;-68
2024/02/12 12:59:17;;;;;;;1.05;0.68;;;;;;;;;;5054735;28;20381;-68
2024/02/12 13:01:43;;;;;;;1.38;0.68;;;;;;;;;;5054432;28;20116;-69
2024/02/12 13:04:12;;;;;;;1.00;0.70;;;;;;;;;;5054730;28;20053;-68
2024/02/12 13:06:39;;;;;;;0.70;0.60;;;;;;;;;;5054530;28;20059;-68
2024/02/12 13:09:07;;;;;;;0.77;0.60;;;;;;;;;;5054625;28;20092;-68
2024/02/12 13:11:34;;;;;;;1.50;0.85;;;;;;;;;;5054360;28;20021;-68
2024/02/12 13:14:04;;;;;;;0.90;0.70;;;;;;;;;;5054480;28;20104;-68
2024/02/12 13:16:31;;;;;;;0.38;0.30;;;;;;;;;;5054486;28;20573;-69
2024/02/12 13:18:57;;;;;;;0.68;0.60;;;;;;;;;;5054378;28;20025;-68
2024/02/12 13:21:23;;;;;;;0.80;0.50;;;;;;;;;;5054324;28;20028;-68
2024/02/12 13:23:49;;;;;;;0.82;0.50;;;;;;;;;;5054470;28;20127;-68
2024/02/12 13:26:15;;;;;;;0.57;0.57;;;;;;;;;;5054265;28;20116;-69
2024/02/12 13:28:42;;;;;;;0.60;0.52;;;;;;;;;;5054085;28;20056;-69
2024/02/12 13:31:08;;;;;;;1.35;0.68;;;;;;;;;;5054079;28;20021;-68
2024/02/12 13:33:34;;;;;;;1.40;0.80;;;;;;;;;;5054594;28;20463;-67
2024/02/12 13:36:03;;;;;;;1.15;0.65;;;;;;;;;;5054105;28;20631;-68
2024/02/12 13:38:32;;;;;;;0.75;0.70;;;;;;;;;;5036131;28;20609;-68